sensor_id;sensor_type;location;lat;lon;timestamp;pressure;altitude;pressure_sealevel;temperature;humidity
5879;BME280;2965;42.640;23.370;2023-10-13T03:01:46;95053.06;;;9.99;100.00
5879;BME280;2965;42.640;23.370;2023-10-13T03:04:12;95055.22;;;9.88;100.00
5879;BME280;2965;42.640;23.370;2023-10-13T03:06:38;95053.94;;;9.75;100.00
5879;BME280;2965;42.640;23.370;2023-10-13T03:09:09;95050.31;;;9.68;100.00
5879;BME280;2965;42.640;23.370;2023-10-13T03:11:45;95056.84;;;9.72;100.00
5879;BME280;2965;42.640;23.370;2023-10-13T03:14:18;95054.25;;;9.64;100.00
5879;BME280;2965;42.640;23.370;2023-10-13T03:16:53;95052.94;;;9.68;100.00
5879;BME280;2965;42.640;23.370;2023-10-13T03:19:19;95063.72;;;9.73;100.00
5879;BME280;2965;42.640;23.370;2023-10-13T03:21:45;95051.63;;;9.72;100.00
5879;BME280;2965;42.640;23.370;2023-10-13T03:24:21;95051.63;;;9.64;100.00
5879;BME280;2965;42.640;23.370;2023-10-13T03:26:48;95056.22;;;9.62;100.00
5879;BME280;2965;42.640;23.370;2023-10-13T03:29:17;95064.69;;;9.56;100.00
5879;BME280;2965;42.640;23.370;2023-10-13T03:31:47;95060.47;;;9.55;100.00
5879;BME280;2965;42.640;23.370;2023-10-13T03:34:28;95061.25;;;9.55;100.00
5879;BME280;2965;42.640;23.370;2023-10-13T03:36:54;95067.00;;;9.59;100.00
5879;BME280;2965;42.640;23.370;2023-10-13T03:39:24;95063.06;;;9.47;100.00
5879;BME280;2965;42.640;23.370;2023-10-13T03:41:59;95052.97;;;9.44;100.00
5879;BME280;2965;42.640;23.370;2023-10-13T03:44:25;95050.03;;;9.39;100.00
5879;BME280;2965;42.640;23.370;2023-10-13T03:46:55;95053.94;;;9.34;100.00
5879;BME280;2965;42.640;23.370;2023-10-13T03:49:21;95045.75;;;9.38;100.00
5879;BME280;2965;42.640;23.370;2023-10-13T03:51:49;95039.09;;;9.43;100.00
5879;BME280;2965;42.640;23.370;2023-10-13T03:54:16;95039.56;;;9.55;100.00
5879;BME280;2965;42.640;23.370;2023-10-13T03:56:42;95030.41;;;9.59;100.00
5879;BME280;2965;42.640;23.370;2023-10-13T03:59:10;95023.25;;;9.61;100.00
5879;BME280;2965;42.640;23.370;2023-10-13T04:01:46;95019.34;;;9.65;100.00
5879;BME280;2965;42.640;23.370;2023-10-13T04:04:13;95008.88;;;9.65;100.00
5879;BME280;2965;42.640;23.370;2023-10-13T04:07:03;95010.19;;;9.61;100.00
5879;BME280;2965;42.640;23.370;2023-10-13T04:09:36;95018.03;;;9.61;100.00
5879;BME280;2965;42.640;23.370;2023-10-13T04:12:06;95016.06;;;9.63;100.00
5879;BME280;2965;42.640;23.370;2023-10-13T04:14:44;95013.13;;;9.74;100.00
5879;BME280;2965;42.640;23.370;2023-10-13T04:17:28;95007.09;;;9.57;100.00
5879;BME280;2965;42.640;23.370;2023-10-13T04:19:56;95009.19;;;9.62;100.00
5879;BME280;2965;42.640;23.370;2023-10-13T04:25:20;95016.56;;;9.58;100.00
5879;BME280;2965;42.640;23.370;2023-10-13T04:28:07;95026.34;;;9.40;100.00
5879;BME280;2965;42.640;23.370;2023-10-13T04:33:27;95031.72;;;9.06;100.00
5879;BME280;2965;42.640;23.370;2023-10-13T04:36:13;95025.84;;;9.04;100.00
5879;BME280;2965;42.640;23.370;2023-10-13T04:38:48;95034.31;;;9.06;100.00
5879;BME280;2965;42.640;23.370;2023-10-13T04:41:40;95042.81;;;9.08;100.00
5879;BME280;2965;42.640;23.370;2023-10-13T04:44:10;95040.19;;;9.00;100.00
5879;BME280;2965;42.640;23.370;2023-10-13T04:46:55;95057.16;;;9.04;100.00
5879;BME280;2965;42.640;23.370;2023-10-13T04:49:38;95057.16;;;9.04;100.00
5879;BME280;2965;42.640;23.370;2023-10-13T04:52:12;95055.50;;;9.03;100.00
5879;BME280;2965;42.640;23.370;2023-10-13T04:54:42;95060.41;;;9.06;100.00
5879;BME280;2965;42.640;23.370;2023-10-13T04:57:15;95056.50;;;9.10;100.00
5879;BME280;2965;42.640;23.370;2023-10-13T04:59:47;95064.50;;;9.08;100.00
5879;BME280;2965;42.640;23.370;2023-10-13T05:02:32;95073.78;;;9.11;100.00
5879;BME280;2965;42.640;23.370;2023-10-13T05:05:06;95074.00;;;9.18;100.00
5879;BME280;2965;42.640;23.370;2023-10-13T05:07:32;95090.97;;;9.22;100.00
5879;BME280;2965;42.640;23.370;2023-10-13T05:10:17;95093.09;;;9.26;100.00
5879;BME280;2965;42.640;23.370;2023-10-13T05:13:02;95086.25;;;9.25;100.00
5879;BME280;2965;42.640;23.370;2023-10-13T05:15:50;95091.16;;;9.61;100.00
5879;BME280;2965;42.640;23.370;2023-10-13T05:18:35;95084.69;;;10.45;100.00
5879;BME280;2965;42.640;23.370;2023-10-13T05:21:20;95086.81;;;11.43;100.00
5879;BME280;2965;42.640;23.370;2023-10-13T05:24:04;95091.78;;;11.99;100.00
5879;BME280;2965;42.640;23.370;2023-10-13T05:26:48;95094.66;;;12.42;100.00
5879;BME280;2965;42.640;23.370;2023-10-13T05:29:32;95095.72;;;12.92;100.00
5879;BME280;2965;42.640;23.370;2023-10-13T05:32:16;95102.03;;;13.12;100.00
5879;BME280;2965;42.640;23.370;2023-10-13T05:35:00;95095.84;;;13.34;100.00
5879;BME280;2965;42.640;23.370;2023-10-13T05:37:44;95107.38;;;13.76;100.00
5879;BME280;2965;42.640;23.370;2023-10-13T05:40:28;95103.81;;;14.12;100.00
5879;BME280;2965;42.640;23.370;2023-10-13T05:43:12;95113.41;;;14.48;100.00
5879;BME280;2965;42.640;23.370;2023-10-13T05:46:01;95107.31;;;14.75;100.00
5879;BME280;2965;42.640;23.370;2023-10-13T05:48:45;95110.41;;;14.85;100.00
5879;BME280;2965;42.640;23.370;2023-10-13T05:51:28;95114.50;;;14.95;100.00
5879;BME280;2965;42.640;23.370;2023-10-13T05:54:17;95120.75;;;15.28;100.00
5879;BME280;2965;42.640;23.370;2023-10-13T05:56:50;95106.38;;;15.44;100.00
5879;BME280;2965;42.640;23.370;2023-10-13T05:59:36;95103.44;;;15.67;100.00
5879;BME280;2965;42.640;23.370;2023-10-13T06:02:21;95111.16;;;15.88;100.00
5879;BME280;2965;42.640;23.370;2023-10-13T06:05:07;95102.63;;;15.93;100.00
5879;BME280;2965;42.640;23.370;2023-10-13T06:07:52;95111.16;;;16.02;100.00
5879;BME280;2965;42.640;23.370;2023-10-13T06:10:37;95117.25;;;16.49;100.00
5879;BME280;2965;42.640;23.370;2023-10-13T06:13:22;95123.69;;;17.51;100.00
5879;BME280;2965;42.640;23.370;2023-10-13T06:16:08;95137.41;;;18.11;100.00
5879;BME280;2965;42.640;23.370;2023-10-13T06:18:53;95128.09;;;18.52;100.00
5879;BME280;2965;42.640;23.370;2023-10-13T06:21:37;95133.47;;;17.88;100.00
5879;BME280;2965;42.640;23.370;2023-10-13T06:24:21;95137.84;;;17.63;100.00
5879;BME280;2965;42.640;23.370;2023-10-13T06:27:05;95141.72;;;17.60;100.00
5879;BME280;2965;42.640;23.370;2023-10-13T06:29:49;95136.09;;;17.50;100.00
5879;BME280;2965;42.640;23.370;2023-10-13T06:32:14;95145.00;;;17.56;100.00
5879;BME280;2965;42.640;23.370;2023-10-13T06:34:42;95142.13;;;17.64;100.00
5879;BME280;2965;42.640;23.370;2023-10-13T06:37:15;95142.94;;;17.64;100.00
5879;BME280;2965;42.640;23.370;2023-10-13T06:39:53;95144.03;;;17.44;100.00
5879;BME280;2965;42.640;23.370;2023-10-13T06:42:28;95140.81;;;17.42;100.00
5879;BME280;2965;42.640;23.370;2023-10-13T06:44:57;95145.00;;;17.56;100.00
5879;BME280;2965;42.640;23.370;2023-10-13T06:47:25;95137.69;;;17.58;100.00
5879;BME280;2965;42.640;23.370;2023-10-13T06:49:53;95138.84;;;17.75;100.00
5879;BME280;2965;42.640;23.370;2023-10-13T06:52:20;95138.41;;;17.78;100.00
5879;BME280;2965;42.640;23.370;2023-10-13T06:54:50;95134.31;;;17.82;100.00
5879;BME280;2965;42.640;23.370;2023-10-13T06:57:15;95136.47;;;17.92;100.00
5879;BME280;2965;42.640;23.370;2023-10-13T06:59:46;95133.66;;;17.94;100.00
5879;BME280;2965;42.640;23.370;2023-10-13T07:02:11;95134.72;;;17.79;100.00
5879;BME280;2965;42.640;23.370;2023-10-13T07:04:45;95130.69;;;17.70;95.21
5879;BME280;2965;42.640;23.370;2023-10-13T07:07:12;95129.94;;;17.63;100.00
5879;BME280;2965;42.640;23.370;2023-10-13T07:09:41;95113.59;;;17.66;100.00
5879;BME280;2965;42.640;23.370;2023-10-13T07:12:14;95104.63;;;17.80;100.00
5879;BME280;2965;42.640;23.370;2023-10-13T07:14:50;95115.47;;;17.97;100.00
5879;BME280;2965;42.640;23.370;2023-10-13T07:17:24;95112.16;;;18.08;100.00
5879;BME280;2965;42.640;23.370;2023-10-13T07:19:55;95110.16;;;18.04;100.00
5879;BME280;2965;42.640;23.370;2023-10-13T07:22:38;95110.94;;;17.34;100.00
5879;BME280;2965;42.640;23.370;2023-10-13T07:25:05;95115.13;;;17.04;100.00
5879;BME280;2965;42.640;23.370;2023-10-13T07:27:31;95118.03;;;16.69;100.00
5879;BME280;2965;42.640;23.370;2023-10-13T07:30:00;95126.19;;;16.54;100.00
5879;BME280;2965;42.640;23.370;2023-10-13T07:32:42;95120.50;;;16.57;100.00
5879;BME280;2965;42.640;23.370;2023-10-13T07:35:12;95120.09;;;16.54;100.00
5879;BME280;2965;42.640;23.370;2023-10-13T07:37:43;95120.44;;;16.97;100.00
5879;BME280;2965;42.640;23.370;2023-10-13T07:40:09;95117.88;;;17.35;100.00
5879;BME280;2965;42.640;23.370;2023-10-13T07:42:56;95114.19;;;17.36;100.00
5879;BME280;2965;42.640;23.370;2023-10-13T07:45:30;95115.56;;;17.01;100.00
5879;BME280;2965;42.640;23.370;2023-10-13T07:48:05;95114.19;;;17.36;100.00
5879;BME280;2965;42.640;23.370;2023-10-13T07:51:09;95111.94;;;17.78;100.00
5879;BME280;2965;42.640;23.370;2023-10-13T07:53:45;95106.38;;;17.55;99.04
5879;BME280;2965;42.640;23.370;2023-10-13T07:56:14;95105.22;;;17.37;100.00
5879;BME280;2965;42.640;23.370;2023-10-13T07:58:44;95096.88;;;17.40;100.00
5879;BME280;2965;42.640;23.370;2023-10-13T08:01:21;95099.97;;;18.01;100.00
5879;BME280;2965;42.640;23.370;2023-10-13T08:03:47;95098.16;;;18.26;98.44
5879;BME280;2965;42.640;23.370;2023-10-13T08:06:14;95095.81;;;18.61;100.00
5879;BME280;2965;42.640;23.370;2023-10-13T08:08:41;95105.16;;;18.64;90.18
5879;BME280;2965;42.640;23.370;2023-10-13T08:11:16;95096.00;;;18.85;92.41
5879;BME280;2965;42.640;23.370;2023-10-13T08:13:48;95095.94;;;18.92;92.41
5879;BME280;2965;42.640;23.370;2023-10-13T08:16:19;95085.47;;;18.78;88.40
5879;BME280;2965;42.640;23.370;2023-10-13T08:18:52;95081.66;;;18.74;92.23
5879;BME280;2965;42.640;23.370;2023-10-13T08:21:21;95093.06;;;18.50;94.95
5879;BME280;2965;42.640;23.370;2023-10-13T08:23:50;95097.16;;;18.46;92.81
5879;BME280;2965;42.640;23.370;2023-10-13T08:26:22;95100.03;;;18.44;90.37
5879;BME280;2965;42.640;23.370;2023-10-13T08:29:06;95101.25;;;18.92;92.17
5879;BME280;2965;42.640;23.370;2023-10-13T08:31:52;95101.97;;;19.17;90.41
5879;BME280;2965;42.640;23.370;2023-10-13T08:34:33;95105.63;;;19.34;90.32
5879;BME280;2965;42.640;23.370;2023-10-13T08:37:20;95111.38;;;19.31;86.95
5879;BME280;2965;42.640;23.370;2023-10-13T08:39:52;95108.59;;;19.26;91.42
5879;BME280;2965;42.640;23.370;2023-10-13T08:42:37;95100.38;;;19.64;90.80
5879;BME280;2965;42.640;23.370;2023-10-13T08:45:15;95093.09;;;20.02;87.54
5879;BME280;2965;42.640;23.370;2023-10-13T08:47:59;95087.59;;;20.27;82.19
5879;BME280;2965;42.640;23.370;2023-10-13T08:50:41;95090.97;;;20.46;82.41
5879;BME280;2965;42.640;23.370;2023-10-13T08:53:20;95093.28;;;20.54;78.31
5879;BME280;2965;42.640;23.370;2023-10-13T08:56:07;95098.16;;;20.57;77.79
5879;BME280;2965;42.640;23.370;2023-10-13T09:01:24;95101.44;;;20.40;77.73
5879;BME280;2965;42.640;23.370;2023-10-13T09:04:00;95094.50;;;20.16;79.04
5879;BME280;2965;42.640;23.370;2023-10-13T09:09:28;95089.91;;;20.94;83.14
5879;BME280;2965;42.640;23.370;2023-10-13T09:12:21;95090.88;;;21.39;81.19
5879;BME280;2965;42.640;23.370;2023-10-13T09:15:10;95080.31;;;21.73;78.03
5879;BME280;2965;42.640;23.370;2023-10-13T09:17:48;95088.59;;;21.88;78.81
5879;BME280;2965;42.640;23.370;2023-10-13T09:20:30;95085.34;;;21.86;74.69
5879;BME280;2965;42.640;23.370;2023-10-13T09:23:17;95087.00;;;21.87;73.61
5879;BME280;2965;42.640;23.370;2023-10-13T09:26:05;95081.88;;;22.31;76.03
5879;BME280;2965;42.640;23.370;2023-10-13T09:28:34;95077.31;;;22.65;70.92
5879;BME280;2965;42.640;23.370;2023-10-13T09:31:02;95072.31;;;23.08;70.24
5879;BME280;2965;42.640;23.370;2023-10-13T09:33:29;95072.75;;;23.44;67.91
5879;BME280;2965;42.640;23.370;2023-10-13T09:36:16;95070.03;;;23.38;65.97
5879;BME280;2965;42.640;23.370;2023-10-13T09:38:42;95060.41;;;23.37;65.35
5879;BME280;2965;42.640;23.370;2023-10-13T09:41:14;95059.97;;;23.02;65.65
5879;BME280;2965;42.640;23.370;2023-10-13T09:43:52;95059.72;;;23.25;66.78
5879;BME280;2965;42.640;23.370;2023-10-13T09:46:21;95052.81;;;23.51;65.60
5879;BME280;2965;42.640;23.370;2023-10-13T09:48:49;95049.94;;;23.09;64.41
5879;BME280;2965;42.640;23.370;2023-10-13T09:51:30;95051.00;;;23.57;65.65
5879;BME280;2965;42.640;23.370;2023-10-13T09:54:08;95050.91;;;23.47;60.99
5879;BME280;2965;42.640;23.370;2023-10-13T09:56:43;95051.31;;;23.60;59.77
5879;BME280;2965;42.640;23.370;2023-10-13T09:59:20;95046.41;;;23.74;62.69
5879;BME280;2965;42.640;23.370;2023-10-13T10:01:48;95051.81;;;23.57;61.45
5879;BME280;2965;42.640;23.370;2023-10-13T10:04:22;95042.78;;;23.90;63.99
5879;BME280;2965;42.640;23.370;2023-10-13T10:07:06;95047.47;;;24.05;60.87
5879;BME280;2965;42.640;23.370;2023-10-13T10:09:34;95041.97;;;24.49;63.01
5879;BME280;2965;42.640;23.370;2023-10-13T10:17:42;95030.50;;;25.79;57.72
5879;BME280;2965;42.640;23.370;2023-10-13T10:20:09;95027.31;;;26.08;54.21
5879;BME280;2965;42.640;23.370;2023-10-13T10:22:41;95024.63;;;25.87;51.09
5879;BME280;2965;42.640;23.370;2023-10-13T10:25:13;95020.84;;;25.88;51.99
5879;BME280;2965;42.640;23.370;2023-10-13T10:27:58;95015.50;;;26.29;51.67
5879;BME280;2965;42.640;23.370;2023-10-13T10:30:28;95018.94;;;26.76;51.75
5879;BME280;2965;42.640;23.370;2023-10-13T10:32:57;95006.28;;;26.86;45.69
5879;BME280;2965;42.640;23.370;2023-10-13T10:35:27;95016.44;;;27.10;43.53
5879;BME280;2965;42.640;23.370;2023-10-13T10:38:10;95021.59;;;26.81;40.83
5879;BME280;2965;42.640;23.370;2023-10-13T10:41:07;95009.50;;;26.94;41.03
5879;BME280;2965;42.640;23.370;2023-10-13T10:43:37;95012.00;;;27.39;42.34
5879;BME280;2965;42.640;23.370;2023-10-13T10:48:37;95000.41;;;27.94;46.33
5879;BME280;2965;42.640;23.370;2023-10-13T10:51:13;95003.47;;;28.16;42.38
5879;BME280;2965;42.640;23.370;2023-10-13T10:53:52;95000.50;;;27.78;43.41
5879;BME280;2965;42.640;23.370;2023-10-13T10:56:22;95002.13;;;27.79;42.81
5879;BME280;2965;42.640;23.370;2023-10-13T10:58:56;95003.69;;;27.85;43.09
5879;BME280;2965;42.640;23.370;2023-10-13T11:01:26;95000.22;;;27.85;41.34
5879;BME280;2965;42.640;23.370;2023-10-13T11:04:00;95002.94;;;27.75;40.19
5879;BME280;2965;42.640;23.370;2023-10-13T11:06:51;94995.69;;;27.80;40.25
5879;BME280;2965;42.640;23.370;2023-10-13T11:09:30;94996.47;;;28.15;39.93
5879;BME280;2965;42.640;23.370;2023-10-13T11:12:17;94992.91;;;27.90;40.95
5879;BME280;2965;42.640;23.370;2023-10-13T11:15:07;94987.31;;;27.82;43.72
5879;BME280;2965;42.640;23.370;2023-10-13T11:17:49;94981.28;;;28.29;42.71
5879;BME280;2965;42.640;23.370;2023-10-13T11:20:18;94982.44;;;28.76;42.29
5879;BME280;2965;42.640;23.370;2023-10-13T11:22:51;94982.97;;;28.78;42.25
5879;BME280;2965;42.640;23.370;2023-10-13T11:25:27;94980.66;;;28.90;42.49
5879;BME280;2965;42.640;23.370;2023-10-13T11:27:56;94971.59;;;29.10;38.75
5879;BME280;2965;42.640;23.370;2023-10-13T11:30:25;94966.19;;;28.86;36.07
5879;BME280;2965;42.640;23.370;2023-10-13T11:33:11;94969.91;;;28.66;37.93
5879;BME280;2965;42.640;23.370;2023-10-13T11:35:43;94970.16;;;29.18;37.13
5879;BME280;2965;42.640;23.370;2023-10-13T11:38:17;94965.91;;;29.12;35.90
5879;BME280;2965;42.640;23.370;2023-10-13T11:41:04;94973.31;;;29.44;36.07
5879;BME280;2965;42.640;23.370;2023-10-13T11:46:11;94957.13;;;29.44;35.20
5879;BME280;2965;42.640;23.370;2023-10-13T11:48:38;94944.34;;;29.12;36.90
5879;BME280;2965;42.640;23.370;2023-10-13T11:51:04;94938.09;;;28.98;37.34
5879;BME280;2965;42.640;23.370;2023-10-13T11:53:36;94944.25;;;29.22;39.19
5879;BME280;2965;42.640;23.370;2023-10-13T11:56:02;94953.56;;;29.49;37.59
5879;BME280;2965;42.640;23.370;2023-10-13T11:58:34;94949.75;;;30.06;37.98
5879;BME280;2965;42.640;23.370;2023-10-13T12:01:00;94955.72;;;30.63;36.28
5879;BME280;2965;42.640;23.370;2023-10-13T12:03:41;94943.00;;;30.36;34.91
5879;BME280;2965;42.640;23.370;2023-10-13T12:06:26;94941.03;;;30.28;36.39
5879;BME280;2965;42.640;23.370;2023-10-13T12:09:18;94938.75;;;30.63;35.03
5879;BME280;2965;42.640;23.370;2023-10-13T12:11:44;94930.34;;;31.20;32.72
5879;BME280;2965;42.640;23.370;2023-10-13T12:14:14;94926.50;;;31.48;32.66
5879;BME280;2965;42.640;23.370;2023-10-13T12:17:03;94926.97;;;31.86;31.98
5879;BME280;2965;42.640;23.370;2023-10-13T12:19:29;94934.34;;;31.95;33.27
5879;BME280;2965;42.640;23.370;2023-10-13T12:21:57;94931.75;;;32.12;32.79
5879;BME280;2965;42.640;23.370;2023-10-13T12:24:23;94922.13;;;32.51;33.35
5879;BME280;2965;42.640;23.370;2023-10-13T12:27:02;94921.00;;;31.76;33.02
5879;BME280;2965;42.640;23.370;2023-10-13T12:29:28;94928.34;;;30.70;32.36
5879;BME280;2965;42.640;23.370;2023-10-13T12:31:57;94921.44;;;30.36;33.64
5879;BME280;2965;42.640;23.370;2023-10-13T12:34:39;94918.25;;;31.31;33.21
5879;BME280;2965;42.640;23.370;2023-10-13T12:37:41;94922.97;;;31.48;32.13
5879;BME280;2965;42.640;23.370;2023-10-13T12:40:08;94910.38;;;30.79;35.40
5879;BME280;2965;42.640;23.370;2023-10-13T12:42:53;94916.38;;;31.04;32.77
5879;BME280;2965;42.640;23.370;2023-10-13T12:45:45;94914.50;;;31.40;31.97
5879;BME280;2965;42.640;23.370;2023-10-13T12:48:30;94911.09;;;31.49;31.63
5879;BME280;2965;42.640;23.370;2023-10-13T12:51:14;94900.50;;;31.61;31.69
5879;BME280;2965;42.640;23.370;2023-10-13T12:53:50;94911.78;;;32.53;32.98
5879;BME280;2965;42.640;23.370;2023-10-13T12:56:16;94910.69;;;33.11;30.89
5879;BME280;2965;42.640;23.370;2023-10-13T12:58:45;94941.38;;;33.72;30.81
5879;BME280;2965;42.640;23.370;2023-10-13T13:01:21;94907.59;;;33.61;28.54
5879;BME280;2965;42.640;23.370;2023-10-13T13:03:47;94904.88;;;33.78;30.42
5879;BME280;2965;42.640;23.370;2023-10-13T13:06:18;94910.09;;;33.40;31.34
5879;BME280;2965;42.640;23.370;2023-10-13T13:08:53;94908.81;;;33.37;28.46
5879;BME280;2965;42.640;23.370;2023-10-13T13:11:18;94900.38;;;33.39;29.87
5879;BME280;2965;42.640;23.370;2023-10-13T13:13:44;94905.28;;;33.28;30.39
5879;BME280;2965;42.640;23.370;2023-10-13T13:16:12;94900.69;;;33.37;30.13
5879;BME280;2965;42.640;23.370;2023-10-13T13:18:37;94898.31;;;33.79;28.10
5879;BME280;2965;42.640;23.370;2023-10-13T13:21:03;94896.88;;;33.99;28.85
5879;BME280;2965;42.640;23.370;2023-10-13T13:23:31;94904.72;;;33.49;28.07
5879;BME280;2965;42.640;23.370;2023-10-13T13:25:57;94905.00;;;33.90;29.93
5879;BME280;2965;42.640;23.370;2023-10-13T13:28:22;94900.75;;;34.54;29.21
5879;BME280;2965;42.640;23.370;2023-10-13T13:30:49;94911.41;;;34.88;28.11
5879;BME280;2965;42.640;23.370;2023-10-13T13:33:16;94896.72;;;35.19;29.00
5879;BME280;2965;42.640;23.370;2023-10-13T13:35:42;94902.09;;;34.69;27.48
5879;BME280;2965;42.640;23.370;2023-10-13T13:38:09;94905.22;;;34.50;28.69
5879;BME280;2965;42.640;23.370;2023-10-13T13:40:53;94907.59;;;34.51;28.48
5879;BME280;2965;42.640;23.370;2023-10-13T13:43:22;94906.44;;;34.99;28.66
5879;BME280;2965;42.640;23.370;2023-10-13T13:46:03;94917.28;;;35.08;27.66
5879;BME280;2965;42.640;23.370;2023-10-13T13:48:28;94902.16;;;34.60;28.43
5879;BME280;2965;42.640;23.370;2023-10-13T13:50:54;94908.66;;;34.68;28.14
5879;BME280;2965;42.640;23.370;2023-10-13T13:53:29;94907.59;;;33.96;27.73
5879;BME280;2965;42.640;23.370;2023-10-13T13:56:00;94907.75;;;33.56;29.98
5879;BME280;2965;42.640;23.370;2023-10-13T13:58:25;94916.19;;;33.46;31.03
5879;BME280;2965;42.640;23.370;2023-10-13T14:00:50;94899.13;;;32.79;29.97
5879;BME280;2965;42.640;23.370;2023-10-13T14:03:16;94906.00;;;32.85;31.67
5879;BME280;2965;42.640;23.370;2023-10-13T14:06:00;94907.59;;;33.61;32.00
5879;BME280;2965;42.640;23.370;2023-10-13T14:08:26;94900.28;;;34.34;31.00
5879;BME280;2965;42.640;23.370;2023-10-13T14:10:53;94912.19;;;34.68;29.27
5879;BME280;2965;42.640;23.370;2023-10-13T14:13:37;94912.84;;;34.95;29.95
5879;BME280;2965;42.640;23.370;2023-10-13T14:16:17;94903.81;;;34.26;28.05
5879;BME280;2965;42.640;23.370;2023-10-13T14:18:47;94906.06;;;34.33;28.89
5879;BME280;2965;42.640;23.370;2023-10-13T14:21:13;94908.66;;;34.12;28.41
5879;BME280;2965;42.640;23.370;2023-10-13T14:23:48;94897.94;;;34.24;29.91
5879;BME280;2965;42.640;23.370;2023-10-13T14:26:17;94900.28;;;34.34;29.26
5879;BME280;2965;42.640;23.370;2023-10-13T14:28:46;94894.56;;;34.36;31.93
5879;BME280;2965;42.640;23.370;2023-10-13T14:31:29;94898.53;;;34.38;31.28
5879;BME280;2965;42.640;23.370;2023-10-13T14:33:55;94903.94;;;34.38;32.51
5879;BME280;2965;42.640;23.370;2023-10-13T14:36:22;94904.44;;;34.41;32.09
5879;BME280;2965;42.640;23.370;2023-10-13T14:38:48;94902.78;;;34.57;31.21
5879;BME280;2965;42.640;23.370;2023-10-13T14:41:18;94908.50;;;34.64;30.51
5879;BME280;2965;42.640;23.370;2023-10-13T14:43:44;94903.28;;;34.59;30.79
5879;BME280;2965;42.640;23.370;2023-10-13T14:46:20;94908.38;;;34.60;31.47
5879;BME280;2965;42.640;23.370;2023-10-13T14:48:51;94899.47;;;34.43;30.50
5879;BME280;2965;42.640;23.370;2023-10-13T14:51:18;94895.41;;;34.19;31.96
5879;BME280;2965;42.640;23.370;2023-10-13T14:53:44;94890.34;;;34.00;32.07
5879;BME280;2965;42.640;23.370;2023-10-13T14:56:11;94889.56;;;33.74;32.25
5879;BME280;2965;42.640;23.370;2023-10-13T14:58:37;94889.03;;;33.28;31.79
5879;BME280;2965;42.640;23.370;2023-10-13T15:01:17;94882.16;;;32.96;34.11
5879;BME280;2965;42.640;23.370;2023-10-13T15:03:44;94880.63;;;32.64;34.83
5879;BME280;2965;42.640;23.370;2023-10-13T15:06:20;94885.66;;;31.95;35.28
5879;BME280;2965;42.640;23.370;2023-10-13T15:08:46;94880.84;;;31.47;37.91
5879;BME280;2965;42.640;23.370;2023-10-13T15:11:15;94883.38;;;30.38;38.78
5879;BME280;2965;42.640;23.370;2023-10-13T15:13:43;94891.59;;;29.68;41.60
5879;BME280;2965;42.640;23.370;2023-10-13T15:16:16;94888.97;;;28.63;41.65
5879;BME280;2965;42.640;23.370;2023-10-13T15:18:43;94896.19;;;27.85;42.81
5879;BME280;2965;42.640;23.370;2023-10-13T15:21:09;94892.00;;;27.69;45.29
5879;BME280;2965;42.640;23.370;2023-10-13T15:23:35;94894.91;;;27.38;44.69
5879;BME280;2965;42.640;23.370;2023-10-13T15:26:08;94896.84;;;26.83;48.93
5879;BME280;2965;42.640;23.370;2023-10-13T15:28:36;94889.97;;;26.62;48.96
5879;BME280;2965;42.640;23.370;2023-10-13T15:31:03;94894.81;;;26.55;49.13
5879;BME280;2965;42.640;23.370;2023-10-13T15:33:50;94892.72;;;26.16;50.39
5879;BME280;2965;42.640;23.370;2023-10-13T15:36:18;94902.44;;;25.76;52.27
5879;BME280;2965;42.640;23.370;2023-10-13T15:38:45;94904.56;;;25.28;54.34
5879;BME280;2965;42.640;23.370;2023-10-13T15:41:12;94899.69;;;25.10;55.17
5879;BME280;2965;42.640;23.370;2023-10-13T15:43:37;94911.94;;;24.96;56.36
5879;BME280;2965;42.640;23.370;2023-10-13T15:46:15;94918.22;;;24.59;57.28
5879;BME280;2965;42.640;23.370;2023-10-13T15:48:41;94914.88;;;24.36;56.86
5879;BME280;2965;42.640;23.370;2023-10-13T15:51:10;94905.56;;;23.97;59.70
5879;BME280;2965;42.640;23.370;2023-10-13T15:53:38;94914.00;;;23.78;60.43
5879;BME280;2965;42.640;23.370;2023-10-13T15:56:03;94914.16;;;23.66;63.28
5879;BME280;2965;42.640;23.370;2023-10-13T15:58:46;94907.75;;;23.40;67.23
5879;BME280;2965;42.640;23.370;2023-10-13T16:01:16;94937.22;;;23.51;65.81
5879;BME280;2965;42.640;23.370;2023-10-13T16:03:43;94916.75;;;23.29;63.36
5879;BME280;2965;42.640;23.370;2023-10-13T16:06:12;94920.00;;;22.87;65.43
5879;BME280;2965;42.640;23.370;2023-10-13T16:08:39;94916.50;;;22.60;67.59
5879;BME280;2965;42.640;23.370;2023-10-13T16:11:09;94918.41;;;22.42;69.59
5879;BME280;2965;42.640;23.370;2023-10-13T16:13:39;94926.72;;;22.24;68.88
5879;BME280;2965;42.640;23.370;2023-10-13T16:16:05;94927.19;;;22.21;72.38
5879;BME280;2965;42.640;23.370;2023-10-13T16:18:31;94933.84;;;22.19;71.54
5879;BME280;2965;42.640;23.370;2023-10-13T16:21:00;94944.28;;;22.08;71.43
5879;BME280;2965;42.640;23.370;2023-10-13T16:23:29;94946.00;;;21.81;74.12
5879;BME280;2965;42.640;23.370;2023-10-13T16:25:55;94943.41;;;21.69;74.76
5879;BME280;2965;42.640;23.370;2023-10-13T16:28:23;94953.91;;;21.59;76.11
5879;BME280;2965;42.640;23.370;2023-10-13T16:30:49;94948.09;;;21.45;76.70
5879;BME280;2965;42.640;23.370;2023-10-13T16:33:14;94946.97;;;21.29;76.67
5879;BME280;2965;42.640;23.370;2023-10-13T16:35:42;94952.94;;;21.20;77.50
5879;BME280;2965;42.640;23.370;2023-10-13T16:38:11;94949.84;;;21.11;78.91
5879;BME280;2965;42.640;23.370;2023-10-13T16:40:36;94956.41;;;20.91;79.55
5879;BME280;2965;42.640;23.370;2023-10-13T16:43:05;94954.94;;;20.84;77.53
5879;BME280;2965;42.640;23.370;2023-10-13T16:45:36;94956.34;;;20.75;81.47
5879;BME280;2965;42.640;23.370;2023-10-13T16:48:01;94951.38;;;20.78;83.78
5879;BME280;2965;42.640;23.370;2023-10-13T16:50:27;94950.94;;;20.98;85.58
5879;BME280;2965;42.640;23.370;2023-10-13T16:52:54;94954.53;;;21.04;80.49
5879;BME280;2965;42.640;23.370;2023-10-13T16:55:22;94954.81;;;20.90;81.01
5879;BME280;2965;42.640;23.370;2023-10-13T16:57:49;94956.97;;;20.94;79.35
5879;BME280;2965;42.640;23.370;2023-10-13T17:00:19;94954.56;;;20.92;79.70
5879;BME280;2965;42.640;23.370;2023-10-13T17:02:51;94958.44;;;21.01;80.73
5879;BME280;2965;42.640;23.370;2023-10-13T17:05:18;94954.63;;;21.09;77.17
5879;BME280;2965;42.640;23.370;2023-10-13T17:07:44;94956.81;;;21.12;76.40